Boulevard, New York
Current Conditions -  °F | °C
As of 9:51 AM on Friday 19 Dec 2014 (Local Time) from KLGA Reporting Station
Overcast Overcast  
Wind Chill: 25°   Ceiling: 3600
Heat Index: 35°   Visibility: 10mi
Dew Point: 22°   Wind: 16mph
Humidity: 59%   Direction: 320°NW
Pressure: 30.07"   Gusts: NA
Location:  40.8106°N, 73.8845°W
Report Text: KLGA 191451Z 32014KT 10SM OVC036 02/M06 A3007 RMK AO2 SLP181 T00171056 51024
Loading
Personal Weather Stations






























Interactive Weather Map New forecast layout! Learn more

10-Day Weather Forecast

Advertisements
Track Severe Weather on mobile